Time;durP1;ratioP1;P1;durP2;ratioP2;P2;SDS_P1;SDS_P2;PMS_P1;PMS_P2;Temp;Humidity;BMP_temperature;BMP_pressure;BME280_temperature;BME280_humidity;BME280_pressure;Samples;Min_cycle;Max_cycle;Signal;HPM_P1;HPM_P2
2022/11/13 00:00:17;;;;;;;18.80;15.48;;;9.10;99.90;;;;;;6099602;23;20153;-59
2022/11/13 00:02:43;;;;;;;21.88;19.67;;;9.10;99.90;;;;;;6125360;23;20157;-59
2022/11/13 00:05:09;;;;;;;21.20;17.40;;;9.20;99.90;;;;;;6125831;23;20161;-59
2022/11/13 00:07:34;;;;;;;20.30;18.10;;;9.20;99.90;;;;;;6075719;23;20149;-59
2022/11/13 00:10:00;;;;;;;19.58;17.88;;;9.10;99.90;;;;;;6125426;23;20154;-59
2022/11/13 00:12:27;;;;;;;20.67;18.77;;;9.00;99.90;;;;;;6124904;23;20188;-59
2022/11/13 00:14:53;;;;;;;20.27;18.38;;;9.10;99.90;;;;;;6099624;23;20192;-59
2022/11/13 00:17:18;;;;;;;21.30;17.25;;;9.10;99.90;;;;;;6124901;23;20145;-59
2022/11/13 00:19:44;;;;;;;21.35;19.35;;;9.10;99.90;;;;;;6125255;23;20214;-59
2022/11/13 00:22:10;;;;;;;19.73;17.63;;;9.10;99.90;;;;;;6099094;23;20184;-59
2022/11/13 00:24:35;;;;;;;23.95;17.80;;;9.10;99.90;;;;;;6125180;23;20161;-59
2022/11/13 00:27:01;;;;;;;20.35;18.55;;;9.10;99.90;;;;;;6125186;23;20150;-59
2022/11/13 00:29:26;;;;;;;19.92;18.13;;;9.10;99.90;;;;;;6099087;23;20153;-59
2022/11/13 00:31:52;;;;;;;21.85;19.65;;;9.10;99.90;;;;;;6099199;23;20466;-59
2022/11/13 00:34:18;;;;;;;21.15;19.25;;;9.20;99.90;;;;;;6099275;23;20185;-59
2022/11/13 00:36:43;;;;;;;22.77;17.50;;;9.20;99.90;;;;;;6124740;23;20168;-59
2022/11/13 00:39:09;;;;;;;22.75;20.45;;;9.30;99.90;;;;;;6099216;23;20153;-59
2022/11/13 00:41:35;;;;;;;23.05;18.67;;;9.30;99.90;;;;;;6099118;23;20175;-59
2022/11/13 00:44:02;;;;;;;25.55;23.10;;;9.40;99.90;;;;;;6099157;23;20493;-59
2022/11/13 00:46:28;;;;;;;27.58;24.77;;;9.50;99.90;;;;;;6124987;23;20161;-59
2022/11/13 00:48:54;;;;;;;27.17;24.45;;;9.70;99.90;;;;;;6099136;23;20153;-59
2022/11/13 00:51:20;;;;;;;33.42;23.00;;;9.80;99.90;;;;;;6097534;23;20157;-59
2022/11/13 00:53:46;;;;;;;28.50;21.52;;;9.70;99.90;;;;;;6123136;23;20589;-59
2022/11/13 00:56:12;;;;;;;25.30;20.33;;;9.80;99.90;;;;;;6122958;23;20520;-59
2022/11/13 00:58:37;;;;;;;29.95;26.88;;;9.80;99.90;;;;;;6097452;23;20150;-59
2022/11/13 01:01:06;;;;;;;30.98;27.88;;;9.80;99.90;;;;;;6097482;23;20157;-59
2022/11/13 01:03:31;;;;;;;28.25;25.50;;;9.80;99.90;;;;;;6123191;23;20201;-59
2022/11/13 01:05:57;;;;;;;35.80;32.15;;;9.70;99.90;;;;;;6123602;23;20185;-59
2022/11/13 01:08:23;;;;;;;38.45;33.72;;;9.80;99.90;;;;;;6122782;23;20150;-59
2022/11/13 01:10:49;;;;;;;34.63;30.95;;;9.70;99.90;;;;;;6097129;23;20213;-59
2022/11/13 01:13:14;;;;;;;36.42;32.58;;;9.70;99.90;;;;;;6097208;23;20161;-59
2022/11/13 01:15:42;;;;;;;31.10;27.73;;;9.70;99.90;;;;;;6123069;23;20181;-59
2022/11/13 01:18:08;;;;;;;28.73;25.13;;;9.60;99.90;;;;;;6123168;23;20150;-59
2022/11/13 01:20:34;;;;;;;29.83;21.95;;;9.60;99.90;;;;;;6073079;23;20662;-59
2022/11/13 01:23:00;;;;;;;28.13;25.30;;;9.60;99.90;;;;;;6097328;23;20156;-59
2022/11/13 01:25:26;;;;;;;24.10;21.80;;;9.60;99.90;;;;;;6097308;23;20232;-59
2022/11/13 01:27:52;;;;;;;23.10;20.88;;;9.50;99.90;;;;;;6122733;23;20544;-59
2022/11/13 01:30:18;;;;;;;27.25;21.05;;;9.50;99.90;;;;;;6123194;23;20207;-58
2022/11/13 01:32:44;;;;;;;21.75;18.90;;;9.50;99.90;;;;;;6123063;23;20153;-59
2022/11/13 01:35:09;;;;;;;24.48;22.05;;;9.50;99.90;;;;;;6097384;23;20177;-59
2022/11/13 01:37:35;;;;;;;23.08;20.92;;;9.50;99.90;;;;;;6097275;23;20199;-59
2022/11/13 01:40:01;;;;;;;24.38;22.02;;;9.40;99.90;;;;;;6123079;23;20473;-59
2022/11/13 01:42:26;;;;;;;20.92;19.10;;;9.40;99.90;;;;;;6122963;23;20581;-59
2022/11/13 01:44:55;;;;;;;27.67;24.88;;;9.30;99.90;;;;;;6123139;23;20264;-59
2022/11/13 01:47:23;;;;;;;28.45;25.67;;;9.30;99.90;;;;;;6122667;23;20522;-59
2022/11/13 01:49:53;;;;;;;22.77;20.58;;;9.30;99.90;;;;;;6122939;23;20246;-59
2022/11/13 01:52:26;;;;;;;23.73;17.50;;;9.20;99.90;;;;;;6123088;23;20142;-59
2022/11/13 01:54:59;;;;;;;26.67;20.65;;;9.20;99.90;;;;;;6123074;23;20170;-59
2022/11/13 01:57:25;;;;;;;24.67;22.45;;;9.30;99.90;;;;;;6123172;23;20137;-59
2022/11/13 01:59:56;;;;;;;25.02;20.23;;;9.20;99.90;;;;;;6123026;23;20168;-59
2022/11/13 02:02:22;;;;;;;21.88;19.77;;;9.20;99.90;;;;;;6097133;23;20146;-59
2022/11/13 02:04:48;;;;;;;20.17;18.25;;;9.10;99.90;;;;;;6122612;23;20466;-59
2022/11/13 02:07:16;;;;;;;19.58;17.88;;;9.10;99.90;;;;;;6097312;23;20184;-59
2022/11/13 02:09:54;;;;;;;21.58;17.83;;;9.10;99.90;;;;;;6123040;23;20150;-59
2022/11/13 02:12:38;;;;;;;19.80;17.20;;;8.90;99.90;;;;;;6122783;23;20457;-59
2022/11/13 02:15:07;;;;;;;18.38;16.10;;;8.90;99.90;;;;;;6122889;23;20675;-59
2022/11/13 02:17:46;;;;;;;20.42;16.15;;;8.80;99.90;;;;;;6123019;23;20533;-59
2022/11/13 02:20:14;;;;;;;20.42;18.13;;;8.70;99.90;;;;;;6122874;23;20137;-59
2022/11/13 02:22:57;;;;;;;20.38;18.38;;;8.70;99.90;;;;;;6122571;23;20616;-59
2022/11/13 02:25:26;;;;;;;19.73;17.75;;;8.70;99.90;;;;;;6122957;23;20180;-59
2022/11/13 02:27:51;;;;;;;21.27;18.88;;;8.60;99.90;;;;;;6122797;23;20192;-59
2022/11/13 02:30:23;;;;;;;19.98;15.70;;;8.60;99.90;;;;;;6122794;23;20150;-59
2022/11/13 02:32:51;;;;;;;19.27;15.07;;;8.50;99.90;;;;;;6122800;23;20228;-59
2022/11/13 02:35:30;;;;;;;18.05;14.77;;;8.40;99.90;;;;;;6096993;23;20182;-59
2022/11/13 02:38:00;;;;;;;15.73;13.75;;;8.30;99.90;;;;;;6122555;23;20212;-59
2022/11/13 02:40:27;;;;;;;15.57;13.88;;;8.30;99.90;;;;;;6122413;23;20548;-59
2022/11/13 02:42:53;;;;;;;17.80;16.10;;;8.20;99.90;;;;;;6122470;23;20164;-59
2022/11/13 02:45:19;;;;;;;16.77;15.27;;;8.30;99.90;;;;;;6122262;23;20593;-59
2022/11/13 02:47:45;;;;;;;20.67;16.55;;;8.30;99.90;;;;;;6122669;23;20153;-59
2022/11/13 02:50:12;;;;;;;17.52;14.05;;;8.10;99.90;;;;;;6096851;23;20158;-59
2022/11/13 02:52:38;;;;;;;16.40;14.70;;;8.00;99.90;;;;;;6122369;23;20489;-59
2022/11/13 02:55:05;;;;;;;18.45;15.38;;;8.10;99.90;;;;;;6122642;23;20177;-59
2022/11/13 02:57:31;;;;;;;16.48;13.93;;;8.10;99.90;;;;;;6122709;23;20224;-59
2022/11/13 02:59:56;;;;;;;16.33;14.43;;;8.10;99.90;;;;;;6122305;23;20482;-59
2022/11/13 03:02:22;;;;;;;18.75;14.25;;;8.00;99.90;;;;;;6096587;23;20161;-59
2022/11/13 03:04:48;;;;;;;18.52;16.80;;;8.10;99.90;;;;;;6072849;23;20181;-59
2022/11/13 03:07:14;;;;;;;18.70;14.70;;;8.10;99.90;;;;;;6122285;23;20462;-59
2022/11/13 03:09:40;;;;;;;18.73;14.25;;;8.10;99.90;;;;;;6122586;23;20506;-60
2022/11/13 03:12:09;;;;;;;18.98;15.13;;;8.10;99.90;;;;;;6072459;23;20157;-59
2022/11/13 03:14:35;;;;;;;19.27;15.38;;;8.10;99.90;;;;;;6096170;23;20189;-59
2022/11/13 03:17:00;;;;;;;17.95;15.43;;;8.10;99.90;;;;;;6122560;23;20150;-59
2022/11/13 03:19:27;;;;;;;17.67;14.05;;;8.00;99.90;;;;;;6122543;23;20153;-59
2022/11/13 03:21:53;;;;;;;16.10;14.57;;;8.00;99.90;;;;;;6096818;23;20161;-59
2022/11/13 03:24:19;;;;;;;15.52;13.57;;;8.00;99.90;;;;;;6072488;23;20164;-59
2022/11/13 03:26:44;;;;;;;16.58;13.90;;;7.80;99.90;;;;;;6096396;23;20153;-59
2022/11/13 03:29:10;;;;;;;14.90;13.32;;;7.80;99.90;;;;;;6122429;23;20160;-59
2022/11/13 03:31:35;;;;;;;17.25;15.00;;;7.80;99.90;;;;;;6122136;23;20153;-59
2022/11/13 03:34:01;;;;;;;17.65;13.55;;;7.90;99.90;;;;;;6096649;23;20247;-59
2022/11/13 03:36:27;;;;;;;18.15;14.60;;;7.70;99.90;;;;;;6122121;23;20240;-59
2022/11/13 03:38:53;;;;;;;16.38;14.30;;;7.80;99.90;;;;;;6096817;23;20454;-59
2022/11/13 03:41:18;;;;;;;17.17;14.48;;;7.70;99.90;;;;;;6122440;23;20154;-59
2022/11/13 03:43:44;;;;;;;20.35;15.68;;;7.70;99.90;;;;;;6122134;23;20219;-59
2022/11/13 03:46:09;;;;;;;17.63;13.38;;;7.80;99.90;;;;;;6122414;23;20149;-59
2022/11/13 03:48:35;;;;;;;15.18;12.35;;;7.70;99.90;;;;;;6122257;23;20244;-59
2022/11/13 03:51:02;;;;;;;13.15;11.75;;;7.60;99.90;;;;;;6121825;23;20177;-59
2022/11/13 03:53:28;;;;;;;13.93;12.38;;;7.40;99.90;;;;;;6122277;23;20203;-59
2022/11/13 03:55:53;;;;;;;11.10;10.00;;;7.30;99.90;;;;;;6122460;23;20209;-59
2022/11/13 03:58:20;;;;;;;12.70;10.82;;;7.20;99.90;;;;;;6122168;23;20161;-59
2022/11/13 04:00:46;;;;;;;11.63;9.77;;;7.20;99.90;;;;;;6122177;23;20153;-59
2022/11/13 04:03:12;;;;;;;11.98;10.75;;;7.10;99.90;;;;;;6121796;23;20200;-59
2022/11/13 04:05:38;;;;;;;15.60;12.10;;;7.10;99.90;;;;;;6122212;23;20160;-59
2022/11/13 04:08:04;;;;;;;18.60;12.25;;;7.20;99.90;;;;;;6122122;23;20216;-59
2022/11/13 04:10:30;;;;;;;14.18;11.20;;;7.20;99.90;;;;;;6121997;23;20181;-59
2022/11/13 04:12:56;;;;;;;13.38;11.95;;;7.20;99.90;;;;;;6095997;23;20173;-59
2022/11/13 04:15:22;;;;;;;49.97;14.40;;;7.10;99.90;;;;;;6095996;23;20204;-59
2022/11/13 04:17:48;;;;;;;30.30;13.23;;;7.10;99.90;;;;;;6121618;23;20466;-59
2022/11/13 04:20:13;;;;;;;17.90;12.05;;;7.10;99.90;;;;;;6122042;23;20585;-59
2022/11/13 04:22:39;;;;;;;13.90;10.77;;;7.00;99.90;;;;;;6121986;23;20157;-59
2022/11/13 04:25:06;;;;;;;12.68;10.80;;;6.70;99.90;;;;;;6096039;23;20165;-59
2022/11/13 04:27:32;;;;;;;12.38;11.07;;;6.70;99.90;;;;;;6123212;23;20335;-59
2022/11/13 04:29:57;;;;;;;17.95;11.57;;;6.60;99.90;;;;;;6123353;23;20658;-59
2022/11/13 04:32:23;;;;;;;16.00;12.57;;;6.80;99.90;;;;;;6123314;23;20184;-59
2022/11/13 04:34:48;;;;;;;13.93;12.38;;;6.90;99.90;;;;;;6097476;23;20188;-59
2022/11/13 04:37:14;;;;;;;14.48;12.52;;;7.00;99.90;;;;;;6123392;23;20556;-59
2022/11/13 04:39:40;;;;;;;16.02;12.75;;;7.00;99.90;;;;;;6097550;23;20461;-59
2022/11/13 04:43:06;;;;;;;14.85;12.77;;;7.00;99.90;;;;;;6123313;23;20156;-59
2022/11/13 04:45:00;;;;;;;16.05;13.57;;;7.10;99.90;;;;;;6135844;23;20613;-59
2022/11/13 04:47:26;;;;;;;17.05;13.98;;;7.20;99.90;;;;;;6123225;23;20237;-59
2022/11/13 04:49:51;;;;;;;18.10;14.63;;;7.20;99.90;;;;;;6123203;23;20650;-59
2022/11/13 04:52:17;;;;;;;17.85;14.13;;;7.20;99.90;;;;;;6123205;23;20185;-59
2022/11/13 04:54:43;;;;;;;16.50;13.48;;;7.30;99.90;;;;;;6123091;23;20256;-59
2022/11/13 04:57:08;;;;;;;17.85;14.48;;;7.20;99.90;;;;;;6123238;23;20158;-59
2022/11/13 04:59:34;;;;;;;16.40;14.52;;;6.90;99.90;;;;;;6123166;23;20154;-59
2022/11/13 05:01:59;;;;;;;15.68;12.98;;;6.80;99.90;;;;;;6097552;23;20157;-59
2022/11/13 05:04:25;;;;;;;15.38;13.02;;;6.70;99.90;;;;;;6123131;23;20172;-59
2022/11/13 05:06:51;;;;;;;18.92;14.90;;;6.90;99.90;;;;;;6123112;23;20154;-59
2022/11/13 05:09:16;;;;;;;18.45;14.55;;;6.90;99.90;;;;;;6123103;23;20589;-59
2022/11/13 05:11:42;;;;;;;21.17;13.77;;;7.00;99.90;;;;;;6096950;23;20161;-59
2022/11/13 05:14:11;;;;;;;19.73;15.15;;;7.10;99.90;;;;;;6122606;23;20205;-59
2022/11/13 05:16:36;;;;;;;19.92;15.15;;;7.10;99.90;;;;;;6122755;23;20169;-59
2022/11/13 05:19:05;;;;;;;20.83;14.90;;;7.00;99.90;;;;;;6123105;23;20161;-59
2022/11/13 05:21:35;;;;;;;18.67;15.45;;;7.10;99.90;;;;;;6097922;23;20607;-59
2022/11/13 05:24:02;;;;;;;19.98;15.55;;;7.10;99.90;;;;;;6122708;23;20600;-59
2022/11/13 05:26:28;;;;;;;19.00;15.00;;;7.20;99.90;;;;;;6097303;23;20154;-59
2022/11/13 05:28:58;;;;;;;19.92;14.50;;;7.20;99.90;;;;;;6123066;23;20153;-59
2022/11/13 05:31:25;;;;;;;18.10;14.63;;;7.20;99.90;;;;;;6097144;23;20275;-59
2022/11/13 05:33:51;;;;;;;21.27;16.77;;;7.10;99.90;;;;;;6122979;23;20153;-60
2022/11/13 05:36:18;;;;;;;26.10;20.35;;;7.10;99.90;;;;;;6096928;23;20572;-59
2022/11/13 05:38:44;;;;;;;25.08;18.48;;;7.20;99.90;;;;;;6123004;23;20160;-59
2022/11/13 05:41:15;;;;;;;24.38;18.60;;;7.30;99.90;;;;;;6123047;23;20149;-60
2022/11/13 05:43:41;;;;;;;21.38;18.83;;;7.30;99.90;;;;;;6123225;23;20240;-60
2022/11/13 05:46:18;;;;;;;19.95;15.75;;;7.30;99.90;;;;;;6073407;23;20199;-60
2022/11/13 05:48:45;;;;;;;18.08;14.68;;;7.10;99.90;;;;;;6123003;23;20137;-59
2022/11/13 05:51:19;;;;;;;15.93;13.55;;;7.00;99.90;;;;;;6122994;23;20153;-59
2022/11/13 05:53:45;;;;;;;18.58;16.05;;;6.90;99.90;;;;;;6122887;23;20141;-59
2022/11/13 05:56:16;;;;;;;19.02;14.68;;;7.00;99.90;;;;;;6122925;23;20169;-59
2022/11/13 05:58:42;;;;;;;18.98;14.98;;;7.10;99.90;;;;;;6097231;23;20227;-59
2022/11/13 06:01:15;;;;;;;20.42;15.80;;;7.10;99.90;;;;;;6122905;23;20149;-60
2022/11/13 06:03:42;;;;;;;22.88;18.48;;;7.20;99.90;;;;;;6122986;23;20138;-59
2022/11/13 06:06:10;;;;;;;23.38;18.10;;;7.20;99.90;;;;;;6122954;23;20157;-59
2022/11/13 06:08:36;;;;;;;25.45;19.88;;;7.30;99.90;;;;;;6122619;23;20173;-58
2022/11/13 06:11:06;;;;;;;27.67;21.30;;;7.40;99.90;;;;;;6122519;23;20156;-59
2022/11/13 06:13:32;;;;;;;27.20;21.38;;;7.50;99.90;;;;;;6122918;23;20168;-59
2022/11/13 06:16:03;;;;;;;29.83;23.55;;;7.50;99.90;;;;;;6123138;23;20253;-59
2022/11/13 06:18:30;;;;;;;34.08;27.02;;;7.40;99.90;;;;;;6122351;23;20239;-59
2022/11/13 06:21:04;;;;;;;33.10;25.25;;;7.30;99.90;;;;;;6122877;23;20596;-59
2022/11/13 06:23:32;;;;;;;32.72;24.67;;;7.30;99.90;;;;;;6122531;23;20446;-58
2022/11/13 06:26:02;;;;;;;26.60;22.33;;;7.30;99.90;;;;;;6122878;23;20518;-58
2022/11/13 06:28:28;;;;;;;25.17;19.58;;;7.30;99.90;;;;;;6073473;23;20494;-59
2022/11/13 06:30:54;;;;;;;25.17;18.38;;;7.10;99.90;;;;;;6122810;23;20157;-59
2022/11/13 06:33:19;;;;;;;22.75;19.58;;;7.20;99.90;;;;;;6122799;23;20149;-59
2022/11/13 06:35:45;;;;;;;19.80;17.65;;;7.10;99.90;;;;;;6122810;23;20191;-59
2022/11/13 06:38:11;;;;;;;22.27;17.90;;;7.20;99.90;;;;;;6097225;23;20528;-60
2022/11/13 06:40:39;;;;;;;19.00;15.68;;;7.10;99.90;;;;;;6122785;23;20157;-59
2022/11/13 06:43:05;;;;;;;19.30;16.02;;;7.10;99.90;;;;;;6122618;23;20154;-59
2022/11/13 06:45:30;;;;;;;23.58;17.02;;;7.00;99.90;;;;;;6097062;23;20168;-59
2022/11/13 06:47:56;;;;;;;19.80;16.95;;;7.00;99.90;;;;;;6096224;23;20157;-59
2022/11/13 06:50:22;;;;;;;20.85;17.98;;;6.90;99.90;;;;;;6096743;23;20164;-59
2022/11/13 06:52:47;;;;;;;49.42;37.08;;;6.80;99.90;;;;;;6122651;23;20153;-59
2022/11/13 06:55:13;;;;;;;34.95;28.63;;;6.80;99.90;;;;;;6096782;23;20181;-59
2022/11/13 06:57:38;;;;;;;35.63;20.35;;;6.70;99.90;;;;;;6122765;23;20157;-59
2022/11/13 07:00:05;;;;;;;36.50;20.88;;;6.80;99.90;;;;;;6072804;23;20163;-59
2022/11/13 07:02:30;;;;;;;34.55;23.33;;;6.90;99.90;;;;;;6122654;23;20150;-59
2022/11/13 07:04:56;;;;;;;35.40;21.48;;;7.00;99.90;;;;;;6122605;23;20161;-59
2022/11/13 07:07:22;;;;;;;67.30;23.45;;;7.00;99.90;;;;;;6122636;23;20584;-59
2022/11/13 07:09:47;;;;;;;44.33;24.70;;;7.00;99.90;;;;;;6096803;23;20157;-59
2022/11/13 07:12:13;;;;;;;44.55;31.77;;;7.10;99.90;;;;;;6122580;23;20168;-59
2022/11/13 07:14:39;;;;;;;38.03;25.40;;;7.20;99.90;;;;;;6074788;23;20195;-59
2022/11/13 07:17:04;;;;;;;26.40;20.75;;;7.20;99.90;;;;;;6122487;23;20481;-59
2022/11/13 07:19:30;;;;;;;26.10;19.33;;;7.30;99.90;;;;;;6122510;23;20161;-59
2022/11/13 07:21:55;;;;;;;25.38;19.67;;;7.30;99.90;;;;;;6072861;23;20160;-59
2022/11/13 07:24:21;;;;;;;23.67;19.17;;;7.30;99.90;;;;;;6122174;23;20171;-59
2022/11/13 07:26:47;;;;;;;21.73;19.40;;;7.30;99.90;;;;;;6122481;23;20228;-59
2022/11/13 07:29:12;;;;;;;21.05;17.00;;;7.30;99.90;;;;;;6096805;23;20162;-59
2022/11/13 07:31:38;;;;;;;19.98;17.08;;;7.20;99.90;;;;;;6122220;23;20178;-59
2022/11/13 07:34:04;;;;;;;17.58;15.73;;;7.00;99.90;;;;;;6096318;23;20232;-59
2022/11/13 07:36:29;;;;;;;22.05;18.80;;;7.00;99.90;;;;;;6072648;23;20597;-59
2022/11/13 07:38:55;;;;;;;18.60;15.80;;;7.00;99.90;;;;;;6096268;23;20152;-59
2022/11/13 07:41:20;;;;;;;17.95;15.15;;;7.10;99.90;;;;;;6122307;23;20153;-59
2022/11/13 07:43:46;;;;;;;18.50;16.50;;;7.00;99.90;;;;;;6122058;23;20191;-59
2022/11/13 07:46:12;;;;;;;18.92;15.77;;;7.00;99.90;;;;;;6121965;23;20531;-59
2022/11/13 07:48:37;;;;;;;16.70;14.65;;;7.10;99.90;;;;;;6096604;23;20172;-59
2022/11/13 07:51:03;;;;;;;15.77;14.30;;;7.00;99.90;;;;;;6096408;23;20459;-59
2022/11/13 07:53:29;;;;;;;16.90;14.88;;;7.00;99.90;;;;;;6096502;23;20509;-59
2022/11/13 07:55:55;;;;;;;16.25;14.57;;;7.10;99.90;;;;;;6122148;23;20234;-59
2022/11/13 07:58:20;;;;;;;17.55;15.70;;;7.20;99.90;;;;;;6122199;23;20605;-59
2022/11/13 08:00:46;;;;;;;17.77;15.98;;;7.20;99.90;;;;;;6096822;23;20177;-59
2022/11/13 08:03:14;;;;;;;17.15;15.30;;;7.20;99.90;;;;;;6123097;23;20612;-59
2022/11/13 08:05:41;;;;;;;17.83;16.02;;;7.20;99.90;;;;;;6123379;23;20152;-59
2022/11/13 08:08:09;;;;;;;18.08;16.15;;;7.30;99.90;;;;;;6123390;23;20660;-59
2022/11/13 08:10:35;;;;;;;21.05;16.88;;;7.30;99.90;;;;;;6123038;23;20153;-59
2022/11/13 08:13:03;;;;;;;18.55;16.63;;;7.30;99.90;;;;;;6123488;23;20165;-59
2022/11/13 08:15:30;;;;;;;20.25;18.02;;;7.30;99.90;;;;;;6123267;23;20550;-59
2022/11/13 08:17:58;;;;;;;20.58;17.20;;;7.40;99.90;;;;;;6122972;23;20150;-59
2022/11/13 08:20:25;;;;;;;21.67;17.55;;;7.40;99.90;;;;;;6073791;23;20161;-59
2022/11/13 08:22:51;;;;;;;18.50;15.63;;;7.50;99.90;;;;;;6123348;23;20152;-59
2022/11/13 08:25:18;;;;;;;20.25;17.25;;;7.50;99.90;;;;;;6123335;23;20154;-59
2022/11/13 08:27:44;;;;;;;18.75;16.52;;;7.50;99.90;;;;;;6097438;23;20172;-59
2022/11/13 08:30:10;;;;;;;19.48;17.48;;;7.60;99.90;;;;;;6123205;23;20174;-58
2022/11/13 08:32:36;;;;;;;18.65;16.67;;;7.70;99.90;;;;;;6123479;23;20165;-58
2022/11/13 08:35:01;;;;;;;18.77;16.67;;;7.60;99.90;;;;;;6123072;23;20620;-58
2022/11/13 08:37:27;;;;;;;21.75;19.55;;;7.60;99.90;;;;;;6073577;23;20206;-58
2022/11/13 08:39:54;;;;;;;19.00;17.00;;;7.70;99.90;;;;;;6097551;23;20157;-58
2022/11/13 08:42:19;;;;;;;18.17;16.27;;;7.80;99.90;;;;;;6097569;23;20232;-58
2022/11/13 08:44:45;;;;;;;18.52;16.52;;;7.90;99.90;;;;;;6097332;23;20216;-58
2022/11/13 08:47:11;;;;;;;17.52;15.73;;;8.00;99.90;;;;;;6122933;23;20156;-60
2022/11/13 08:49:36;;;;;;;17.17;15.48;;;7.80;99.90;;;;;;6122870;23;20153;-60
2022/11/13 08:52:02;;;;;;;16.67;14.88;;;8.10;99.90;;;;;;6097465;23;20158;-59
2022/11/13 08:54:28;;;;;;;16.77;15.20;;;8.10;99.90;;;;;;6097320;23;20178;-61
2022/11/13 08:56:53;;;;;;;15.90;14.30;;;8.20;99.90;;;;;;6123083;23;20157;-58
2022/11/13 08:59:19;;;;;;;15.48;13.98;;;8.30;99.90;;;;;;6122837;23;20154;-60
2022/11/13 09:01:45;;;;;;;15.32;13.88;;;8.40;99.90;;;;;;6097291;23;20161;-60
2022/11/13 09:04:10;;;;;;;17.90;14.95;;;8.50;99.90;;;;;;6097409;23;20477;-60
2022/11/13 09:06:36;;;;;;;16.23;14.52;;;8.60;99.90;;;;;;6123167;23;20473;-60
2022/11/13 09:09:04;;;;;;;15.82;14.25;;;8.60;99.90;;;;;;6123256;23;20264;-60
2022/11/13 09:11:30;;;;;;;15.48;13.98;;;8.70;99.90;;;;;;6122566;23;20485;-60
2022/11/13 09:13:55;;;;;;;16.10;14.90;;;8.70;99.90;;;;;;6097280;23;20165;-60
2022/11/13 09:16:21;;;;;;;15.65;14.45;;;8.80;99.90;;;;;;6123031;23;20477;-60
2022/11/13 09:18:51;;;;;;;15.20;13.98;;;8.90;99.90;;;;;;6097353;23;20603;-60
2022/11/13 09:21:17;;;;;;;15.00;13.90;;;8.90;99.90;;;;;;6123060;23;20153;-60
2022/11/13 09:23:43;;;;;;;15.10;13.90;;;9.00;99.90;;;;;;6123093;23;20233;-60
2022/11/13 09:26:08;;;;;;;15.13;13.52;;;9.10;99.90;;;;;;6097301;23;20197;-60
2022/11/13 09:28:34;;;;;;;16.85;15.18;;;9.20;99.90;;;;;;6122768;23;20150;-60
2022/11/13 09:31:06;;;;;;;14.95;13.75;;;9.20;99.90;;;;;;6123032;23;20207;-60
2022/11/13 09:33:32;;;;;;;15.55;13.88;;;9.30;99.90;;;;;;6097160;23;20152;-59
2022/11/13 09:35:58;;;;;;;14.45;13.05;;;9.30;99.90;;;;;;6097382;23;20186;-59
2022/11/13 09:38:24;;;;;;;14.88;13.38;;;9.30;99.90;;;;;;6097190;23;20184;-60
2022/11/13 09:40:57;;;;;;;14.25;12.85;;;9.30;99.90;;;;;;6122983;23;20181;-60
2022/11/13 09:43:41;;;;;;;14.23;12.82;;;9.40;99.90;;;;;;6122895;23;20252;-60
2022/11/13 09:46:30;;;;;;;14.82;13.32;;;9.50;99.90;;;;;;6122922;23;20577;-59
2022/11/13 09:49:02;;;;;;;16.08;14.77;;;9.50;99.90;;;;;;6122881;23;20195;-59
2022/11/13 09:51:35;;;;;;;16.20;14.80;;;9.60;99.90;;;;;;6123006;23;20145;-59
2022/11/13 09:54:05;;;;;;;19.02;17.25;;;9.60;99.90;;;;;;6122497;23;20164;-59
2022/11/13 09:56:36;;;;;;;17.23;15.52;;;9.70;99.90;;;;;;6122919;23;20168;-59
2022/11/13 09:59:15;;;;;;;16.75;15.13;;;9.80;99.90;;;;;;6122959;23;20173;-59
2022/11/13 10:01:46;;;;;;;14.57;13.35;;;10.00;99.90;;;;;;6122912;23;20141;-59
2022/11/13 10:04:15;;;;;;;15.27;13.77;;;10.00;99.90;;;;;;6122903;23;20172;-59
2022/11/13 10:07:00;;;;;;;23.90;20.20;;;10.00;99.90;;;;;;6122951;23;20221;-59
2022/11/13 10:09:46;;;;;;;13.82;12.52;;;10.10;99.90;;;;;;6122971;23;20489;-59
2022/11/13 10:12:14;;;;;;;12.95;11.95;;;10.00;99.90;;;;;;6122987;23;20137;-60
2022/11/13 10:14:50;;;;;;;13.27;12.18;;;10.00;99.90;;;;;;6096853;23;20189;-59
2022/11/13 10:17:39;;;;;;;13.70;12.60;;;10.00;99.90;;;;;;6122770;23;20180;-59
2022/11/13 10:20:14;;;;;;;14.40;13.30;;;10.10;99.90;;;;;;6122769;23;20153;-59
2022/11/13 10:22:52;;;;;;;13.02;11.98;;;10.10;99.90;;;;;;6122813;23;20137;-59
2022/11/13 10:25:27;;;;;;;13.98;12.77;;;10.10;99.90;;;;;;6122925;23;20141;-59
2022/11/13 10:27:56;;;;;;;13.15;12.07;;;10.10;99.90;;;;;;6096951;23;20153;-60
2022/11/13 10:30:22;;;;;;;13.65;12.55;;;10.20;99.90;;;;;;6122793;23;20169;-59
2022/11/13 10:32:49;;;;;;;14.18;13.07;;;10.20;99.90;;;;;;6122726;23;20526;-59
2022/11/13 10:35:27;;;;;;;13.88;12.70;;;10.20;99.90;;;;;;6122623;23;20182;-60
2022/11/13 10:38:07;;;;;;;13.13;12.13;;;10.40;99.90;;;;;;6122788;23;20158;-60
2022/11/13 10:40:37;;;;;;;12.35;11.35;;;10.40;99.90;;;;;;6122616;23;20625;-59
2022/11/13 10:43:14;;;;;;;11.98;10.98;;;10.50;99.90;;;;;;6122369;23;20488;-58
2022/11/13 10:45:42;;;;;;;11.38;10.52;;;10.50;99.90;;;;;;6122821;23;20149;-59
2022/11/13 10:48:20;;;;;;;11.30;10.30;;;10.60;99.90;;;;;;6122334;23;20589;-59
2022/11/13 10:50:57;;;;;;;10.73;9.82;;;10.70;99.90;;;;;;6122629;23;20465;-59
2022/11/13 10:53:25;;;;;;;10.60;9.73;;;10.90;99.90;;;;;;6097094;23;20438;-59
2022/11/13 10:55:55;;;;;;;10.25;9.45;;;10.90;99.90;;;;;;6122558;23;20241;-59
2022/11/13 10:58:20;;;;;;;9.80;9.00;;;11.00;99.90;;;;;;6122652;23;20485;-59
2022/11/13 11:00:48;;;;;;;10.00;9.13;;;11.20;99.90;;;;;;6122316;23;20185;-59
2022/11/13 11:03:18;;;;;;;10.20;9.32;;;11.20;99.90;;;;;;6096778;23;20585;-59
2022/11/13 11:06:01;;;;;;;9.68;8.82;;;11.30;99.90;;;;;;6122736;23;20152;-59
2022/11/13 11:08:32;;;;;;;9.85;9.05;;;11.30;99.90;;;;;;6122829;23;20211;-59
2022/11/13 11:14:18;;;;;;;11.38;10.45;;;11.50;99.90;;;;;;6122244;23;20614;-60
2022/11/13 11:16:45;;;;;;;10.25;9.27;;;11.70;99.90;;;;;;6122432;23;20512;-60
2022/11/13 11:19:14;;;;;;;8.73;8.02;;;11.80;99.90;;;;;;6096596;23;20173;-60
2022/11/13 11:21:41;;;;;;;8.88;8.10;;;11.80;99.90;;;;;;6122167;23;20184;-60
2022/11/13 11:24:15;;;;;;;8.95;8.15;;;11.80;99.90;;;;;;6122720;23;20464;-60
2022/11/13 11:26:58;;;;;;;9.40;8.60;;;12.00;99.90;;;;;;6122647;23;20228;-60
2022/11/13 11:29:36;;;;;;;9.20;8.50;;;12.00;99.90;;;;;;6122259;23;20165;-60
2022/11/13 11:32:30;;;;;;;8.02;7.32;;;11.90;99.90;;;;;;6122722;23;20138;-60
2022/11/13 11:35:04;;;;;;;9.20;8.40;;;12.00;99.90;;;;;;6113047;23;20500;-60
2022/11/13 11:37:43;;;;;;;9.55;8.75;;;12.10;99.90;;;;;;6122486;23;20138;-60
2022/11/13 11:40:27;;;;;;;8.68;7.97;;;12.20;99.90;;;;;;6122370;23;20566;-59
2022/11/13 11:43:02;;;;;;;9.80;9.00;;;12.30;99.90;;;;;;6122162;23;20192;-59
2022/11/13 11:45:43;;;;;;;8.07;7.47;;;12.40;99.90;;;;;;6122433;23;20198;-60
2022/11/13 11:48:27;;;;;;;8.60;7.80;;;12.40;99.90;;;;;;6122398;23;20134;-59
2022/11/13 11:51:01;;;;;;;8.43;7.65;;;12.50;99.90;;;;;;6122008;23;20141;-59
2022/11/13 11:53:45;;;;;;;7.10;6.50;;;12.60;99.90;;;;;;6121921;23;20477;-59
2022/11/13 11:56:13;;;;;;;6.80;6.30;;;12.70;99.90;;;;;;6096036;23;20181;-59
2022/11/13 11:59:02;;;;;;;6.70;6.20;;;12.80;99.90;;;;;;6122236;23;20181;-59
2022/11/13 12:01:54;;;;;;;6.60;6.05;;;12.80;99.90;;;;;;6096372;23;20473;-60
2022/11/13 12:04:37;;;;;;;7.03;6.47;;;12.70;99.90;;;;;;6122303;23;20138;-58
2022/11/13 12:07:29;;;;;;;6.60;5.97;;;12.70;99.90;;;;;;6121805;23;20149;-60
2022/11/13 12:10:01;;;;;;;6.55;6.05;;;12.60;99.90;;;;;;6122131;23;20191;-59
2022/11/13 12:12:29;;;;;;;7.10;6.50;;;12.70;99.90;;;;;;6122049;23;20161;-60
2022/11/13 12:15:30;;;;;;;6.65;6.05;;;12.70;99.90;;;;;;6122013;23;20177;-60
2022/11/13 12:18:14;;;;;;;6.95;6.35;;;12.80;99.90;;;;;;6087588;23;20165;-60
2022/11/13 12:20:49;;;;;;;7.07;6.47;;;12.90;99.90;;;;;;6122065;23;20134;-60
2022/11/13 12:23:28;;;;;;;6.30;5.80;;;12.90;99.90;;;;;;6122392;23;20195;-60
2022/11/13 12:25:59;;;;;;;6.22;5.63;;;13.10;99.90;;;;;;6095833;23;20150;-60
2022/11/13 12:28:37;;;;;;;6.55;6.05;;;13.30;99.90;;;;;;6121635;23;20184;-60
2022/11/13 12:31:18;;;;;;;6.78;6.15;;;13.50;99.90;;;;;;6121675;23;20164;-60
2022/11/13 12:33:55;;;;;;;6.47;5.88;;;13.60;99.90;;;;;;6096100;23;20157;-60
2022/11/13 12:36:22;;;;;;;6.90;6.22;;;13.60;99.90;;;;;;6121721;23;20146;-60
2022/11/13 12:39:10;;;;;;;6.95;6.32;;;13.60;99.90;;;;;;6096199;23;20180;-60
2022/11/13 12:42:13;;;;;;;7.00;6.40;;;13.70;99.90;;;;;;6121691;23;20232;-60
2022/11/13 12:45:17;;;;;;;6.95;6.35;;;13.80;99.90;;;;;;6121749;23;20176;-60
2022/11/13 12:47:43;;;;;;;6.57;5.97;;;13.80;99.90;;;;;;6122718;23;20138;-60
2022/11/13 12:50:27;;;;;;;6.32;5.72;;;13.80;99.90;;;;;;6123234;23;20153;-60